createdAt,value
2019-02-06T00:02:12.718Z,59.70
2019-02-06T00:04:41.815Z,64.30
2019-02-06T00:07:10.903Z,61.03
2019-02-06T00:09:39.995Z,71.93
2019-02-06T00:12:09.248Z,52.67
2019-02-06T00:14:38.672Z,54.10
2019-02-06T00:17:07.686Z,55.53
2019-02-06T00:19:36.849Z,56.20
2019-02-06T00:22:08.234Z,80.23
2019-02-06T00:24:37.254Z,72.47
2019-02-06T00:27:06.421Z,60.73
2019-02-06T00:29:35.419Z,74.50
2019-02-06T00:32:05.855Z,99.77
2019-02-06T00:34:34.841Z,99.00
2019-02-06T00:37:04.023Z,80.60
2019-02-06T00:39:33.028Z,62.20
2019-02-06T00:42:02.076Z,96.47
2019-02-06T00:44:31.012Z,136.00
2019-02-06T00:46:59.968Z,119.30
2019-02-06T00:49:28.928Z,120.53
2019-02-06T00:51:57.872Z,109.23
2019-02-06T00:54:26.812Z,84.17
2019-02-06T00:56:55.774Z,78.20
2019-02-06T00:59:25.032Z,66.93
2019-02-06T01:01:54.177Z,60.97
2019-02-06T01:04:23.335Z,58.53
2019-02-06T01:06:52.371Z,57.90
2019-02-06T01:09:21.920Z,64.93
2019-02-06T01:11:50.842Z,57.57
2019-02-06T01:14:19.855Z,55.13
2019-02-06T01:16:49.328Z,55.63
2019-02-06T01:19:18.248Z,55.70
2019-02-06T01:21:47.267Z,53.63
2019-02-06T01:24:16.300Z,50.73
2019-02-06T01:26:45.229Z,55.93
2019-02-06T01:29:14.151Z,53.63
2019-02-06T01:31:43.258Z,52.77
2019-02-06T01:34:12.211Z,55.97
2019-02-06T01:36:41.175Z,51.00
2019-02-06T01:39:13.047Z,59.67
2019-02-06T01:41:42.212Z,56.93
2019-02-06T01:44:11.256Z,56.30
2019-02-06T01:46:40.280Z,55.30
2019-02-06T01:49:09.684Z,52.37
2019-02-06T01:51:38.688Z,52.00
2019-02-06T01:54:07.676Z,57.87
2019-02-06T01:56:36.616Z,49.73
2019-02-06T01:59:05.966Z,62.10
2019-02-06T02:01:34.978Z,57.00
2019-02-06T02:04:04.537Z,53.63
2019-02-06T02:06:33.497Z,49.77
2019-02-06T02:09:04.211Z,52.23
2019-02-06T02:11:33.147Z,63.87
2019-02-06T02:14:02.315Z,61.73
2019-02-06T02:16:31.320Z,47.10
2019-02-06T02:19:00.242Z,53.37
2019-02-06T02:21:29.213Z,51.97
2019-02-06T02:23:58.136Z,49.40
2019-02-06T02:26:27.120Z,54.73
2019-02-06T02:28:56.306Z,47.33
2019-02-06T02:31:25.226Z,52.50
2019-02-06T02:33:54.228Z,54.87
2019-02-06T02:36:25.310Z,53.67
2019-02-06T02:38:54.388Z,53.23
2019-02-06T02:41:23.451Z,50.30
2019-02-06T02:43:52.377Z,54.17
2019-02-06T02:46:21.345Z,50.10
2019-02-06T02:48:50.322Z,52.83
2019-02-06T02:51:19.388Z,51.23
2019-02-06T02:53:48.401Z,52.10
2019-02-06T02:56:17.486Z,50.07
2019-02-06T02:58:46.475Z,51.83
2019-02-06T03:01:33.421Z,59.37
2019-02-06T03:04:07.289Z,49.90
2019-02-06T03:06:36.312Z,51.50
2019-02-06T03:09:11.227Z,53.03
2019-02-06T03:11:40.198Z,55.23
2019-02-06T03:14:09.256Z,51.63
2019-02-06T03:16:38.191Z,49.83
2019-02-06T03:19:07.302Z,47.63
2019-02-06T03:21:36.284Z,51.03
2019-02-06T03:24:05.297Z,46.33
2019-02-06T03:26:34.260Z,50.53
2019-02-06T03:29:03.199Z,52.77
2019-02-06T03:31:32.475Z,51.93
2019-02-06T03:34:04.642Z,53.50
2019-02-06T03:36:39.799Z,48.30
2019-02-06T03:39:04.498Z,51.77
2019-02-06T03:41:33.588Z,53.07
2019-02-06T03:44:02.657Z,54.77
2019-02-06T03:46:31.788Z,51.37
2019-02-06T03:49:00.730Z,51.13
2019-02-06T03:51:29.764Z,49.27
2019-02-06T03:53:58.794Z,48.37
2019-02-06T03:56:27.870Z,51.33
2019-02-06T03:58:56.786Z,50.47
2019-02-06T04:01:26.232Z,52.40
2019-02-06T04:03:55.131Z,54.90
2019-02-06T04:06:24.066Z,49.80
2019-02-06T04:08:53.168Z,53.33
2019-02-06T04:11:22.105Z,54.63
2019-02-06T04:13:51.205Z,54.33
2019-02-06T04:16:20.555Z,57.03
2019-02-06T04:18:49.672Z,55.07
2019-02-06T04:21:18.649Z,54.17
2019-02-06T04:23:47.672Z,51.57
2019-02-06T04:26:16.676Z,57.40
2019-02-06T04:28:45.659Z,57.27
2019-02-06T04:31:14.647Z,54.43
2019-02-06T04:33:43.594Z,53.63
2019-02-06T04:36:12.627Z,51.97
2019-02-06T04:38:41.622Z,54.97
2019-02-06T04:41:10.620Z,52.73
2019-02-06T04:43:39.700Z,57.47
2019-02-06T04:46:08.732Z,55.63
2019-02-06T04:48:38.073Z,56.63
2019-02-06T04:51:07.105Z,56.70
2019-02-06T04:53:36.062Z,60.77
2019-02-06T04:56:05.316Z,58.03
2019-02-06T04:58:34.319Z,55.37
2019-02-06T05:01:03.376Z,58.97
2019-02-06T05:03:32.939Z,62.43
2019-02-06T05:06:01.935Z,68.80
2019-02-06T05:08:30.869Z,58.67
2019-02-06T05:10:59.967Z,64.20
2019-02-06T05:13:28.901Z,59.83
2019-02-06T05:15:57.836Z,67.47
2019-02-06T05:18:26.779Z,65.53
2019-02-06T05:20:55.873Z,71.87
2019-02-06T05:23:24.900Z,71.20
2019-02-06T05:25:54.051Z,68.43
2019-02-06T05:28:23.134Z,74.87
2019-02-06T05:30:52.160Z,67.10
2019-02-06T05:33:21.462Z,81.77
2019-02-06T05:35:50.774Z,62.30
2019-02-06T05:38:19.846Z,58.37
2019-02-06T05:40:48.844Z,58.33
2019-02-06T05:43:17.794Z,66.33
2019-02-06T05:45:46.805Z,57.30
2019-02-06T05:48:15.791Z,56.63
2019-02-06T05:50:44.792Z,72.77
2019-02-06T05:53:13.756Z,56.13
2019-02-06T05:55:42.899Z,62.17
2019-02-06T05:58:11.908Z,62.20
2019-02-06T06:00:43.881Z,61.20
2019-02-06T06:03:12.833Z,55.90
2019-02-06T06:05:41.828Z,58.70
2019-02-06T06:08:11.158Z,97.73
2019-02-06T06:10:40.217Z,62.87
2019-02-06T06:13:09.303Z,55.93
2019-02-06T06:15:38.290Z,55.77
2019-02-06T06:18:07.399Z,57.37
2019-02-06T06:20:36.349Z,55.17
2019-02-06T06:23:05.380Z,59.87
2019-02-06T06:25:34.484Z,60.27
2019-02-06T06:28:03.616Z,55.03
2019-02-06T06:30:32.750Z,54.60
2019-02-06T06:33:01.769Z,50.23
2019-02-06T06:35:30.750Z,53.07
2019-02-06T06:38:02.517Z,58.13
2019-02-06T06:40:30.364Z,53.00
2019-02-06T06:42:59.385Z,53.63
2019-02-06T06:45:28.530Z,52.97
2019-02-06T06:47:57.547Z,51.50
2019-02-06T06:50:26.753Z,55.70
2019-02-06T06:52:57.160Z,50.10
2019-02-06T06:55:26.480Z,52.47
2019-02-06T06:57:55.567Z,56.80
2019-02-06T07:00:28.832Z,55.27
2019-02-06T07:02:57.967Z,61.67
2019-02-06T07:05:27.178Z,52.40
2019-02-06T07:08:08.787Z,53.67
2019-02-06T07:10:27.912Z,55.40
2019-02-06T07:12:56.932Z,56.90
2019-02-06T07:15:30.689Z,56.23
2019-02-06T07:17:59.808Z,51.10
2019-02-06T07:20:28.824Z,53.13
2019-02-06T07:22:58.183Z,49.47
2019-02-06T07:25:27.076Z,57.83
2019-02-06T07:27:56.069Z,50.93
2019-02-06T07:30:42.984Z,51.60
2019-02-06T07:33:12.058Z,45.87
2019-02-06T07:35:41.419Z,48.17
2019-02-06T07:38:22.326Z,56.33
2019-02-06T07:40:41.060Z,50.70
2019-02-06T07:43:10.124Z,48.53
2019-02-06T07:45:39.179Z,52.63
2019-02-06T07:48:08.097Z,57.73
2019-02-06T07:50:37.629Z,62.07
2019-02-06T07:53:06.772Z,48.53
2019-02-06T07:55:35.792Z,54.83
2019-02-06T07:58:04.797Z,61.63
2019-02-06T08:00:33.785Z,61.20
2019-02-06T08:03:02.888Z,51.33
2019-02-06T08:05:31.881Z,50.57
2019-02-06T08:08:00.902Z,56.83
2019-02-06T08:10:32.182Z,58.20
2019-02-06T08:13:01.518Z,48.23
2019-02-06T08:15:33.884Z,53.23
2019-02-06T08:18:03.072Z,55.70
2019-02-06T08:20:32.071Z,47.47
2019-02-06T08:23:01.148Z,48.67
2019-02-06T08:25:30.060Z,54.07
2019-02-06T08:27:59.097Z,50.23
2019-02-06T08:30:39.037Z,48.23
2019-02-06T08:33:08.335Z,43.77
2019-02-06T08:35:37.472Z,44.07
2019-02-06T08:38:06.549Z,50.90
2019-02-06T08:40:35.630Z,43.77
2019-02-06T08:43:04.851Z,57.50
2019-02-06T08:45:33.943Z,52.27
2019-02-06T08:48:03.056Z,45.23
2019-02-06T08:50:32.530Z,48.87
2019-02-06T08:53:01.632Z,43.60
2019-02-06T08:55:31.440Z,46.50
2019-02-06T08:58:01.848Z,40.67
2019-02-06T09:00:36.104Z,41.87
2019-02-06T09:03:05.985Z,42.20
2019-02-06T09:05:35.058Z,43.07
2019-02-06T09:08:04.458Z,44.00
2019-02-06T09:10:33.541Z,40.57
2019-02-06T09:13:02.803Z,40.70
2019-02-06T09:15:31.878Z,39.03
2019-02-06T09:18:03.180Z,38.77
2019-02-06T09:20:32.451Z,39.60
2019-02-06T09:23:01.696Z,32.80
2019-02-06T09:25:30.844Z,33.63
2019-02-06T09:27:59.960Z,41.07
2019-02-06T09:30:30.922Z,32.47
2019-02-06T09:33:00.206Z,38.97
2019-02-06T09:35:29.270Z,44.27
2019-02-06T09:37:59.859Z,57.80
2019-02-06T09:40:30.108Z,47.77
2019-02-06T09:42:59.268Z,47.53
2019-02-06T09:45:28.367Z,48.43
2019-02-06T09:47:57.385Z,47.73
2019-02-06T09:50:29.540Z,42.17
2019-02-06T09:52:58.654Z,35.57
2019-02-06T09:55:27.748Z,39.40
2019-02-06T09:57:56.783Z,37.20
2019-02-06T10:00:28.099Z,36.20
2019-02-06T10:02:57.291Z,41.67
2019-02-06T10:05:26.516Z,39.53
2019-02-06T10:07:55.530Z,40.92
2019-02-06T10:10:24.959Z,57.83
2019-02-06T10:12:54.291Z,43.23
2019-02-06T10:15:28.939Z,38.03
2019-02-06T10:17:59.052Z,44.27
2019-02-06T10:20:30.910Z,67.10
2019-02-06T10:23:01.822Z,53.03
2019-02-06T10:25:31.367Z,38.83
2019-02-06T10:28:00.440Z,35.37
2019-02-06T10:30:34.205Z,35.30
2019-02-06T10:33:03.592Z,36.33
2019-02-06T10:35:32.640Z,41.57
2019-02-06T10:38:01.665Z,46.10
2019-02-06T10:40:30.984Z,53.30
2019-02-06T10:43:00.193Z,59.43
2019-02-06T10:45:29.647Z,36.37
2019-02-06T10:47:58.951Z,52.33
2019-02-06T10:50:30.538Z,40.63
2019-02-06T10:52:59.580Z,43.13
2019-02-06T10:55:28.760Z,51.83
2019-02-06T10:57:58.016Z,39.73
2019-02-06T11:00:32.913Z,42.07
2019-02-06T11:03:02.201Z,38.97
2019-02-06T11:05:31.342Z,43.70
2019-02-06T11:08:00.336Z,36.27
2019-02-06T11:10:29.518Z,37.70
2019-02-06T11:12:58.584Z,44.13
2019-02-06T11:15:29.053Z,44.37
2019-02-06T11:17:58.195Z,43.13
2019-02-06T11:20:27.759Z,44.20
2019-02-06T11:22:56.719Z,38.83
2019-02-06T11:25:25.836Z,42.87
2019-02-06T11:27:54.823Z,37.87
2019-02-06T11:30:25.660Z,40.70
2019-02-06T11:32:54.762Z,33.80
2019-02-06T11:35:23.784Z,43.27
2019-02-06T11:37:52.896Z,32.20
2019-02-06T11:40:23.349Z,36.10
2019-02-06T11:42:52.652Z,43.00
2019-02-06T11:45:24.887Z,35.10
2019-02-06T11:47:53.904Z,32.78
2019-02-06T11:50:27.056Z,34.93
2019-02-06T11:52:56.072Z,34.77
2019-02-06T11:55:25.433Z,37.30
2019-02-06T11:57:54.374Z,31.40
2019-02-06T12:00:33.899Z,34.37
2019-02-06T12:03:02.821Z,32.83
2019-02-06T12:05:31.745Z,37.57
2019-02-06T12:08:00.845Z,32.23
2019-02-06T12:10:29.966Z,36.60
2019-02-06T12:12:59.027Z,37.13
2019-02-06T12:15:28.420Z,41.10
2019-02-06T12:17:57.453Z,32.63
2019-02-06T12:20:26.710Z,34.53
2019-02-06T12:22:55.718Z,39.08
2019-02-06T12:25:24.836Z,44.13
2019-02-06T12:27:54.642Z,44.57
2019-02-06T12:30:29.211Z,46.57
2019-02-06T12:32:58.241Z,43.13
2019-02-06T12:35:27.295Z,35.07
2019-02-06T12:37:56.365Z,56.73
2019-02-06T12:40:25.882Z,49.30
2019-02-06T12:42:54.951Z,42.67
2019-02-06T12:45:24.152Z,36.50
2019-02-06T12:47:54.064Z,41.00
2019-02-06T12:50:23.672Z,44.30
2019-02-06T12:52:53.125Z,44.13
2019-02-06T12:55:31.052Z,39.97
2019-02-06T12:58:00.191Z,39.47
2019-02-06T13:00:32.953Z,50.07
2019-02-06T13:03:02.081Z,54.63
2019-02-06T13:05:31.779Z,36.57
2019-02-06T13:08:01.292Z,41.93
2019-02-06T13:10:33.869Z,31.47
2019-02-06T13:13:01.068Z,30.60
2019-02-06T13:15:30.198Z,34.70
2019-02-06T13:17:59.174Z,34.70
2019-02-06T13:20:29.333Z,33.30
2019-02-06T13:22:58.379Z,32.53
2019-02-06T13:25:27.495Z,30.50
2019-02-06T13:27:56.509Z,32.97
2019-02-06T13:30:27.752Z,29.90
2019-02-06T13:32:57.001Z,32.87
2019-02-06T13:35:26.101Z,34.67
2019-02-06T13:37:55.136Z,33.30
2019-02-06T13:40:24.902Z,31.50
2019-02-06T13:42:53.951Z,33.20
2019-02-06T13:45:25.343Z,29.23
2019-02-06T13:47:54.461Z,32.37
2019-02-06T13:50:23.649Z,31.90
2019-02-06T13:52:52.680Z,30.57
2019-02-06T13:55:21.678Z,31.53
2019-02-06T13:57:50.715Z,32.03
2019-02-06T14:00:25.693Z,33.23
2019-02-06T14:02:55.125Z,31.90
2019-02-06T14:05:28.195Z,33.57
2019-02-06T14:07:59.480Z,33.47
2019-02-06T14:10:29.122Z,28.70
2019-02-06T14:12:58.206Z,29.00
2019-02-06T14:15:30.111Z,33.77
2019-02-06T14:17:59.193Z,32.17
2019-02-06T14:20:28.299Z,28.00
2019-02-06T14:23:06.961Z,29.77
2019-02-06T14:25:39.564Z,28.13
2019-02-06T14:28:45.012Z,26.03
2019-02-06T14:32:00.935Z,28.15
2019-02-06T14:34:47.832Z,29.73
2019-02-06T14:38:11.231Z,28.43
2019-02-06T14:41:08.650Z,25.30
2019-02-06T14:43:49.575Z,31.90
2019-02-06T14:46:45.051Z,27.43
2019-02-06T14:49:53.623Z,24.77
2019-02-06T14:52:59.807Z,26.70
2019-02-06T14:55:41.629Z,25.60
2019-02-06T14:58:59.315Z,23.87
2019-02-06T15:01:36.936Z,23.87
2019-02-06T15:04:35.641Z,26.30
2019-02-06T15:07:40.475Z,20.20
2019-02-06T15:10:52.421Z,20.37
2019-02-06T15:13:58.356Z,21.57
2019-02-06T15:16:56.020Z,21.13
2019-02-06T15:19:45.569Z,22.27
2019-02-06T15:22:46.906Z,31.93
2019-02-06T15:25:32.405Z,24.00
2019-02-06T15:28:29.893Z,34.97
2019-02-06T15:31:45.423Z,34.00
2019-02-06T15:34:54.180Z,22.97
2019-02-06T15:38:04.447Z,30.37
2019-02-06T15:41:31.249Z,22.47
2019-02-06T15:44:38.935Z,23.30
2019-02-06T15:47:35.875Z,18.50
2019-02-06T15:50:36.583Z,20.97
2019-02-06T15:53:30.019Z,21.83
2019-02-06T15:56:19.808Z,17.43
2019-02-06T15:59:29.004Z,19.50
2019-02-06T16:02:44.293Z,26.53
2019-02-06T16:06:13.399Z,22.37
2019-02-06T16:09:18.202Z,22.70
2019-02-06T16:12:43.007Z,26.90
2019-02-06T16:15:36.668Z,23.77
2019-02-06T16:18:27.306Z,25.00
2019-02-06T16:21:52.624Z,33.90
2019-02-06T16:24:41.927Z,59.10
2019-02-06T16:27:39.226Z,48.50
2019-02-06T16:30:42.609Z,50.13
2019-02-06T16:33:55.947Z,50.23
2019-02-06T16:36:46.712Z,33.53
2019-02-06T16:39:41.081Z,41.90
2019-02-06T16:42:52.101Z,38.83
2019-02-06T16:45:34.962Z,34.70
2019-02-06T16:48:47.889Z,32.67
2019-02-06T16:51:24.825Z,50.37
2019-02-06T16:54:13.500Z,46.23
2019-02-06T16:57:12.280Z,37.00
2019-02-06T17:00:21.545Z,70.43
2019-02-06T17:03:44.263Z,54.60
2019-02-06T17:07:01.016Z,37.97
2019-02-06T17:10:02.055Z,35.97
2019-02-06T17:12:53.381Z,37.67
2019-02-06T17:16:06.915Z,35.07
2019-02-06T17:19:15.989Z,34.27
2019-02-06T17:22:47.905Z,34.80
2019-02-06T17:25:42.011Z,36.03
2019-02-06T17:28:46.474Z,37.93
2019-02-06T17:31:44.707Z,35.70
2019-02-06T17:35:13.201Z,38.87
2019-02-06T17:38:32.637Z,34.23
2019-02-06T17:41:36.094Z,38.23
2019-02-06T17:44:42.201Z,35.17
2019-02-06T17:47:27.842Z,36.37
2019-02-06T17:50:25.035Z,37.33
2019-02-06T17:53:29.872Z,35.23
2019-02-06T17:55:58.892Z,33.20
2019-02-06T17:58:31.519Z,36.67
2019-02-06T18:01:16.672Z,35.87
2019-02-06T18:03:52.674Z,36.00
2019-02-06T18:06:21.729Z,51.03
2019-02-06T18:08:56.812Z,57.00
2019-02-06T18:11:21.552Z,49.17
2019-02-06T18:13:50.965Z,39.87
2019-02-06T18:16:21.593Z,36.40
2019-02-06T18:18:50.732Z,39.20
2019-02-06T18:21:19.785Z,40.63
2019-02-06T18:23:48.744Z,46.33
2019-02-06T18:26:17.835Z,59.33
2019-02-06T18:28:47.269Z,46.27
2019-02-06T18:31:16.461Z,45.87
2019-02-06T18:33:45.545Z,64.33
2019-02-06T18:36:14.636Z,44.67
2019-02-06T18:38:46.873Z,41.37
2019-02-06T18:41:14.528Z,48.27
2019-02-06T18:43:43.610Z,50.37
2019-02-06T18:46:12.829Z,43.27
2019-02-06T18:48:41.968Z,38.80
2019-02-06T18:51:11.073Z,40.40
2019-02-06T18:53:40.252Z,40.87
2019-02-06T18:56:09.583Z,37.87
2019-02-06T18:58:38.671Z,38.70
2019-02-06T19:01:07.997Z,39.23
2019-02-06T19:03:40.192Z,41.40
2019-02-06T19:06:09.862Z,42.00
2019-02-06T19:08:40.081Z,40.60
2019-02-06T19:11:09.517Z,42.20
2019-02-06T19:13:38.652Z,41.53
2019-02-06T19:16:07.883Z,40.90
2019-02-06T19:18:38.237Z,42.23
2019-02-06T19:21:07.276Z,41.73
2019-02-06T19:23:36.874Z,43.27
2019-02-06T19:26:05.956Z,41.23
2019-02-06T19:28:35.070Z,39.17
2019-02-06T19:31:04.416Z,38.87
2019-02-06T19:33:33.420Z,40.00
2019-02-06T19:36:02.516Z,40.37
2019-02-06T19:38:31.580Z,46.47
2019-02-06T19:41:00.933Z,50.37
2019-02-06T19:43:30.037Z,46.53
2019-02-06T19:45:59.157Z,39.00
2019-02-06T19:48:28.206Z,41.40
2019-02-06T19:50:57.215Z,43.33
2019-02-06T19:53:26.356Z,42.70
2019-02-06T19:55:55.552Z,43.63
2019-02-06T19:58:24.761Z,38.10
2019-02-06T20:00:54.016Z,41.80
2019-02-06T20:03:23.133Z,44.70
2019-02-06T20:05:52.188Z,40.20
2019-02-06T20:08:23.042Z,42.80
2019-02-06T20:10:52.129Z,40.23
2019-02-06T20:13:21.290Z,40.97
2019-02-06T20:15:50.947Z,37.93
2019-02-06T20:18:20.112Z,40.50
2019-02-06T20:20:49.232Z,37.40
2019-02-06T20:23:18.478Z,33.20
2019-02-06T20:25:47.674Z,36.67
2019-02-06T20:28:16.780Z,36.27
2019-02-06T20:30:45.872Z,32.47
2019-02-06T20:33:15.393Z,37.07
2019-02-06T20:35:44.498Z,40.97
2019-02-06T20:38:13.577Z,37.47
2019-02-06T20:40:42.688Z,41.17
2019-02-06T20:43:21.678Z,41.13
2019-02-06T20:45:42.539Z,40.20
2019-02-06T20:48:11.619Z,41.60
2019-02-06T20:50:41.168Z,42.87
2019-02-06T20:53:10.277Z,46.33
2019-02-06T20:55:39.424Z,41.90
2019-02-06T20:58:08.442Z,39.17
2019-02-06T21:00:38.090Z,38.57
2019-02-06T21:03:07.780Z,45.00
2019-02-06T21:05:36.895Z,40.10
2019-02-06T21:08:06.092Z,42.77
2019-02-06T21:10:36.122Z,44.57
2019-02-06T21:13:06.964Z,40.90
2019-02-06T21:15:36.105Z,40.53
2019-02-06T21:18:05.820Z,43.57
2019-02-06T21:20:34.902Z,41.73
2019-02-06T21:23:04.437Z,40.27
2019-02-06T21:25:33.529Z,41.10
2019-02-06T21:28:02.542Z,40.60
2019-02-06T21:30:33.424Z,40.27
2019-02-06T21:33:02.578Z,36.93
2019-02-06T21:35:31.555Z,43.27
2019-02-06T21:38:01.078Z,46.97
2019-02-06T21:40:32.184Z,31.03
2019-02-06T21:43:01.221Z,34.30
2019-02-06T21:45:30.352Z,40.53
2019-02-06T21:48:18.104Z,37.03
2019-02-06T21:50:47.156Z,37.33
2019-02-06T21:53:17.018Z,35.50
2019-02-06T21:55:46.067Z,27.40
2019-02-06T21:58:15.617Z,35.07
2019-02-06T22:01:03.849Z,30.07
2019-02-06T22:03:32.941Z,37.27
2019-02-06T22:06:02.093Z,66.97
2019-02-06T22:08:31.128Z,83.57
2019-02-06T22:11:00.250Z,39.53
2019-02-06T22:13:30.728Z,30.57
2019-02-06T22:15:59.798Z,30.47
2019-02-06T22:18:28.812Z,23.37
2019-02-06T22:20:58.215Z,35.63
2019-02-06T22:23:27.412Z,67.30
2019-02-06T22:25:56.453Z,23.50
2019-02-06T22:28:25.498Z,26.60
2019-02-06T22:30:54.845Z,29.77
2019-02-06T22:33:23.909Z,23.97
2019-02-06T22:35:52.990Z,24.43
2019-02-06T22:38:21.991Z,21.33
2019-02-06T22:40:50.992Z,25.73
2019-02-06T22:43:20.109Z,21.37
2019-02-06T22:45:49.260Z,21.70
2019-02-06T22:48:20.450Z,22.37
2019-02-06T22:50:49.513Z,21.57
2019-02-06T22:53:18.609Z,24.77
2019-02-06T22:55:47.614Z,24.43
2019-02-06T22:58:25.119Z,20.80
2019-02-06T23:01:10.439Z,21.90
2019-02-06T23:03:41.925Z,22.40
2019-02-06T23:06:11.635Z,20.40
2019-02-06T23:08:41.100Z,20.07
2019-02-06T23:11:10.311Z,27.87
2019-02-06T23:13:39.386Z,21.40
2019-02-06T23:16:08.568Z,51.23
2019-02-06T23:18:37.731Z,74.40
2019-02-06T23:21:06.818Z,51.50
2019-02-06T23:23:36.217Z,41.53
2019-02-06T23:26:05.664Z,24.73
2019-02-06T23:28:34.737Z,20.27
2019-02-06T23:31:03.861Z,22.73
2019-02-06T23:33:32.946Z,32.87
2019-02-06T23:36:02.076Z,39.10
2019-02-06T23:38:31.408Z,26.50
2019-02-06T23:41:00.542Z,29.90
2019-02-06T23:43:29.605Z,34.73
2019-02-06T23:45:58.539Z,34.80
2019-02-06T23:48:27.597Z,31.10
2019-02-06T23:50:56.657Z,39.50
2019-02-06T23:53:26.103Z,46.87
2019-02-06T23:55:55.219Z,26.10
2019-02-06T23:58:24.424Z,28.63
